Site contains unofficial IBTrACS data. Visit the IBTrACS Website to access archived data.

1917 NOT_NAMED (1917349S18164)


IBTrACS version v04r00. Visit IBTrACS website for data access.
Please direct all questions to the IBTrACS Q and A forum

Storm track - Intensity - Wind Radii - Intensity Data - Source Data - All data

Summary Information

Storm ID 1917349S18164
Start Dec 14 23Z
Landfall Dec 17 06Z
End Dec 19 23Z
ATCF IDs
Track status Best track data.

Storm track plot

Map of storm track

Intensity plots

No Intensity information for this storm


Radial wind information

No radial wind information for this storm


Position and Intensity Table

BASIN ISO_TIME_________ NATURE LAT LON
degrees north degrees east
SP 1917-12-14 23:00:00 NR -17.70 163.60
SP 1917-12-15 00:00:00 NR -17.69 163.15
SP 03:00:00 NR -17.67 161.79
SP 06:00:00 NR -17.65 160.43
SP 09:00:00 NR -17.67 159.04
SP 11:00:00 NR -17.70 158.10
SP 12:00:00 NR -17.73 157.62
SP 15:00:00 NR -17.83 156.20
SP 18:00:00 NR -17.98 154.85
SP 21:00:00 NR -18.16 153.66
SP 23:00:00 NR -18.30 153.00
SP 1917-12-16 00:00:00 NR -18.36 152.72
SP 03:00:00 NR -18.55 152.06
SP 06:00:00 NR -18.78 151.59
SP 09:00:00 NR -19.07 151.22
SP 11:00:00 NR -19.30 151.00
SP 12:00:00 NR -19.43 150.81
SP 15:00:00 NR -19.86 150.26
SP 18:00:00 NR -20.35 149.79
SP 21:00:00 NR -20.86 149.52
SP 23:00:00 NR -21.20 149.50
SP 1917-12-17 00:00:00 NR -21.38 149.55
SP 03:00:00 NR -21.93 149.91
SP 06:00:00 NR -22.44 150.51
SP 09:00:00 NR -22.88 151.26
SP 11:00:00 NR -23.10 151.80
SP 12:00:00 NR -23.18 152.05
SP 15:00:00 NR -23.32 152.85
SP 18:00:00 NR -23.36 153.68
SP 21:00:00 NR -23.34 154.50
SP 23:00:00 NR -23.30 155.00
SP 1917-12-18 00:00:00 NR -23.30 155.22
SP 03:00:00 NR -23.27 155.84
SP 06:00:00 NR -23.22 156.40
SP 09:00:00 NR -23.15 156.94
SP 11:00:00 NR -23.10 157.30
SP 12:00:00 NR -23.08 157.47
SP 15:00:00 NR -23.02 157.99
SP 18:00:00 NR -22.93 158.53
SP 21:00:00 NR -22.81 159.14
SP 23:00:00 NR -22.70 159.60
SP 1917-12-19 00:00:00 NR -22.64 159.86
SP 03:00:00 NR -22.41 160.71
SP 06:00:00 NR -22.13 161.64
SP 09:00:00 NR -21.82 162.63
SP 11:00:00 NR -21.60 163.30
SP 12:00:00 NR -21.49 163.64
SP 15:00:00 NR -21.15 164.64
SP 18:00:00 NR -20.80 165.64
SP 21:00:00 NR -20.44 166.64
SP 23:00:00 NR -20.20 167.30

Source Information

Agency Information
USA
TOKYO
CMA
HKO
NEWDELHI
REUNION
BOM
NADI
WELLINGTON
DS824
TD9636 cons_worldwide_trop_cyclone_18710101-19891231-006:Line=969
TD9635
NEUMANN
MLC

All available IBTrACS Data

SEASON BASIN SUBBASIN ISO_TIME_________ NATURE LAT LON DIST2LAND LANDFALL IFLAG USA SSHS TD9636 LAT TD9636 LON TD9636 STAGE STORM SPEED STORM DIR
Year degrees north degrees east km km 1 degrees north degrees east kts degrees
1918 SP MM 1917-12-14 23:00:00 NR -17.70 163.60 284 284 __________O___ -1 -17.70 163.60 7 26 271
1918 SP MM 1917-12-15 00:00:00 NR -17.69 163.15 298 298 __________P___ -1 -17.69 163.15 7 26 271
1918 SP MM 03:00:00 NR -17.67 161.79 369 369 __________P___ -1 -17.67 161.79 7 26 271
1918 SP MM 06:00:00 NR -17.65 160.43 477 477 __________P___ -1 -17.65 160.43 7 26 270
1918 SP EA 09:00:00 NR -17.67 159.04 600 600 __________P___ -1 -17.67 159.04 7 27 269
1918 SP EA 11:00:00 NR -17.70 158.10 685 685 __________O___ -1 -17.70 158.10 7 27 268
1918 SP EA 12:00:00 NR -17.73 157.62 732 732 __________P___ -1 -17.73 157.62 7 27 266
1918 SP EA 15:00:00 NR -17.83 156.20 770 658 __________P___ -1 -17.83 156.20 7 27 264
1918 SP EA 18:00:00 NR -17.98 154.85 658 564 __________P___ -1 -17.98 154.85 7 24 262
1918 SP EA 21:00:00 NR -18.16 153.66 564 494 __________P___ -1 -18.16 153.66 7 22 260
1918 SP EA 23:00:00 NR -18.30 153.00 494 475 __________O___ -1 -18.30 153.00 7 18 258
1918 SP EA 1917-12-16 00:00:00 NR -18.36 152.72 461 400 __________P___ -1 -18.36 152.72 7 14 255
1918 SP EA 03:00:00 NR -18.55 152.06 400 337 __________P___ -1 -18.55 152.06 7 12 249
1918 SP EA 06:00:00 NR -18.78 151.59 337 284 __________P___ -1 -18.78 151.59 7 10 237
1918 SP EA 09:00:00 NR -19.07 151.22 284 255 __________P___ -1 -19.07 151.22 7 9 227
1918 SP EA 11:00:00 NR -19.30 151.00 255 232 __________O___ -1 -19.30 151.00 7 11 227
1918 SP EA 12:00:00 NR -19.43 150.81 232 165 __________P___ -1 -19.43 150.81 7 13 231
1918 SP EA 15:00:00 NR -19.86 150.26 160 96 __________P___ -1 -19.86 150.26 7 13 226
1918 SP EA 18:00:00 NR -20.35 149.79 96 45 __________P___ -1 -20.35 149.79 7 12 215
1918 SP EA 21:00:00 NR -20.86 149.52 38 30 __________P___ -1 -20.86 149.52 7 11 198
1918 SP EA 23:00:00 NR -21.20 149.50 30 23 __________O___ -1 -21.20 149.50 7 10 178
1918 SP EA 1917-12-17 00:00:00 NR -21.38 149.55 30 20 __________P___ -1 -21.38 149.55 7 12 152
1918 SP EA 03:00:00 NR -21.93 149.91 35 0 __________P___ -1 -21.93 149.91 7 14 140
1918 SP EA 06:00:00 NR -22.44 150.51 0 0 __________P___ -1 -22.44 150.51 7 16 127
1918 SP EA 09:00:00 NR -22.88 151.26 51 51 __________P___ -1 -22.88 151.26 7 16 119
1918 SP EA 11:00:00 NR -23.10 151.80 102 102 __________O___ -1 -23.10 151.80 7 16 112
1918 SP EA 12:00:00 NR -23.18 152.05 102 102 __________P___ -1 -23.18 152.05 7 15 103
1918 SP EA 15:00:00 NR -23.32 152.85 135 135 __________P___ -1 -23.32 152.85 7 15 97
1918 SP EA 18:00:00 NR -23.36 153.68 161 161 __________P___ -1 -23.36 153.68 7 15 90
1918 SP EA 21:00:00 NR -23.34 154.50 207 207 __________P___ -1 -23.34 154.50 7 15 87
1918 SP EA 23:00:00 NR -23.30 155.00 240 240 __________O___ -1 -23.30 155.00 7 13 87
1918 SP EA 1917-12-18 00:00:00 NR -23.30 155.22 255 255 __________P___ -1 -23.30 155.22 7 12 88
1918 SP EA 03:00:00 NR -23.27 155.84 304 304 __________P___ -1 -23.27 155.84 7 11 86
1918 SP EA 06:00:00 NR -23.22 156.40 361 361 __________P___ -1 -23.22 156.40 7 10 83
1918 SP EA 09:00:00 NR -23.15 156.94 406 406 __________P___ -1 -23.15 156.94 7 10 82
1918 SP EA 11:00:00 NR -23.10 157.30 448 448 __________O___ -1 -23.10 157.30 7 10 82
1918 SP EA 12:00:00 NR -23.08 157.47 466 466 __________P___ -1 -23.08 157.47 7 10 83
1918 SP EA 15:00:00 NR -23.02 157.99 517 517 __________P___ -1 -23.02 157.99 7 10 81
1918 SP EA 18:00:00 NR -22.93 158.53 568 568 __________P___ -1 -22.93 158.53 7 11 79
1918 SP EA 21:00:00 NR -22.81 159.14 578 528 __________P___ -1 -22.81 159.14 7 12 77
1918 SP EA 23:00:00 NR -22.70 159.60 528 504 __________O___ -1 -22.70 159.60 7 14 75
1918 SP EA 1917-12-19 00:00:00 NR -22.64 159.86 496 414 __________P___ -1 -22.64 159.86 7 16 74
1918 SP MM 03:00:00 NR -22.41 160.71 414 319 __________P___ -1 -22.41 160.71 7 17 73
1918 SP MM 06:00:00 NR -22.13 161.64 319 217 __________P___ -1 -22.13 161.64 7 19 72
1918 SP MM 09:00:00 NR -21.82 162.63 217 153 __________P___ -1 -21.82 162.63 7 20 71
1918 SP MM 11:00:00 NR -21.60 163.30 144 114 __________O___ -1 -21.60 163.30 7 20 71
1918 SP MM 12:00:00 NR -21.49 163.64 114 15 __________P___ -1 -21.49 163.64 7 20 70
1918 SP MM 15:00:00 NR -21.15 164.64 10 0 __________P___ -1 -21.15 164.64 7 20 70
1918 SP MM 18:00:00 NR -20.80 165.64 30 30 __________P___ -1 -20.80 165.64 7 20 69
1918 SP MM 21:00:00 NR -20.44 166.64 133 133 __________P___ -1 -20.44 166.64 7 20 69
1918 SP MM 23:00:00 NR -20.20 167.30 191 __________O___ -1 -20.20 167.30 7 20 69